sensor_id;sensor_type;location;lat;lon;timestamp;pressure;altitude;pressure_sealevel;temperature;humidity
69058;BME280;56128;37.534;-122.308;2023-09-19T01:46:56;101302.72;;;18.04;100.00
69058;BME280;56128;37.534;-122.308;2023-09-19T01:53:04;101335.38;;;18.02;100.00
69058;BME280;56128;37.534;-122.308;2023-09-19T01:55:47;101330.41;;;17.88;100.00
69058;BME280;56128;37.534;-122.308;2023-09-19T02:01:26;101310.59;;;17.59;100.00
69058;BME280;56128;37.534;-122.308;2023-09-19T02:07:06;101329.75;;;17.48;100.00
69058;BME280;56128;37.534;-122.308;2023-09-19T02:17:20;101330.16;;;17.15;100.00
69058;BME280;56128;37.534;-122.308;2023-09-19T02:19:55;101329.59;;;17.12;100.00
69058;BME280;56128;37.534;-122.308;2023-09-19T02:22:25;101340.41;;;17.12;100.00
69058;BME280;56128;37.534;-122.308;2023-09-19T02:25:00;101326.50;;;16.97;100.00
69058;BME280;56128;37.534;-122.308;2023-09-19T02:27:40;101352.66;;;16.96;100.00
69058;BME280;56128;37.534;-122.308;2023-09-19T02:30:20;101344.97;;;16.82;100.00
69058;BME280;56128;37.534;-122.308;2023-09-19T02:32:58;101339.56;;;16.72;100.00
69058;BME280;56128;37.534;-122.308;2023-09-19T02:36:00;101360.47;;;16.80;100.00
69058;BME280;56128;37.534;-122.308;2023-09-19T02:50:42;101357.19;;;16.37;100.00
69058;BME280;56128;37.534;-122.308;2023-09-19T04:58:33;101389.66;;;14.81;100.00
69058;BME280;56128;37.534;-122.308;2023-09-19T05:01:05;101379.78;;;14.81;100.00
69058;BME280;56128;37.534;-122.308;2023-09-19T05:03:37;101391.38;;;14.82;100.00
69058;BME280;56128;37.534;-122.308;2023-09-19T05:06:04;101407.56;;;14.82;100.00
69058;BME280;56128;37.534;-122.308;2023-09-19T05:08:31;101391.84;;;14.66;100.00
69058;BME280;56128;37.534;-122.308;2023-09-19T05:11:06;101401.75;;;14.65;100.00
69058;BME280;56128;37.534;-122.308;2023-09-19T05:13:34;101391.97;;;14.53;100.00
69058;BME280;56128;37.534;-122.308;2023-09-19T05:16:08;101416.28;;;14.63;100.00
69058;BME280;56128;37.534;-122.308;2023-09-19T05:18:36;101400.31;;;14.50;100.00
69058;BME280;56128;37.534;-122.308;2023-09-19T05:21:05;101407.97;;;14.54;100.00
69058;BME280;56128;37.534;-122.308;2023-09-19T05:23:46;101386.59;;;14.41;100.00
69058;BME280;56128;37.534;-122.308;2023-09-19T05:26:13;101379.31;;;14.32;100.00
69058;BME280;56128;37.534;-122.308;2023-09-19T05:28:42;101398.25;;;14.42;100.00
69058;BME280;56128;37.534;-122.308;2023-09-19T05:31:19;101393.75;;;14.31;100.00
69058;BME280;56128;37.534;-122.308;2023-09-19T05:33:51;101378.59;;;14.19;100.00
69058;BME280;56128;37.534;-122.308;2023-09-19T05:36:18;101388.03;;;14.24;100.00
69058;BME280;56128;37.534;-122.308;2023-09-19T05:56:51;101391.22;;;14.07;100.00
69058;BME280;56128;37.534;-122.308;2023-09-19T05:59:19;101400.28;;;14.06;100.00
69058;BME280;56128;37.534;-122.308;2023-09-19T06:01:45;101388.56;;;13.95;100.00
69058;BME280;56128;37.534;-122.308;2023-09-19T06:04:12;101385.38;;;13.90;100.00
69058;BME280;56128;37.534;-122.308;2023-09-19T06:06:39;101411.75;;;13.96;100.00
69058;BME280;56128;37.534;-122.308;2023-09-19T06:09:06;101398.22;;;13.87;100.00
69058;BME280;56128;37.534;-122.308;2023-09-19T06:11:35;101395.75;;;13.84;100.00
69058;BME280;56128;37.534;-122.308;2023-09-19T06:14:05;101402.38;;;13.91;100.00
69058;BME280;56128;37.534;-122.308;2023-09-19T06:16:31;101395.41;;;13.77;100.00
69058;BME280;56128;37.534;-122.308;2023-09-19T06:18:58;101411.91;;;13.84;100.00
69058;BME280;56128;37.534;-122.308;2023-09-19T06:21:27;101413.88;;;13.82;100.00
69058;BME280;56128;37.534;-122.308;2023-09-19T06:23:53;101416.06;;;13.76;100.00
69058;BME280;56128;37.534;-122.308;2023-09-19T06:26:20;101418.03;;;13.74;100.00
69058;BME280;56128;37.534;-122.308;2023-09-19T06:28:46;101414.84;;;13.69;100.00
69058;BME280;56128;37.534;-122.308;2023-09-19T06:31:12;101424.72;;;13.69;100.00
69058;BME280;56128;37.534;-122.308;2023-09-19T06:33:39;101429.25;;;13.68;100.00
69058;BME280;56128;37.534;-122.308;2023-09-19T06:36:08;101421.56;;;13.63;100.00
69058;BME280;56128;37.534;-122.308;2023-09-19T06:38:35;101423.13;;;13.55;100.00
69058;BME280;56128;37.534;-122.308;2023-09-19T06:41:02;101428.75;;;13.52;100.00
69058;BME280;56128;37.534;-122.308;2023-09-19T06:43:33;101427.28;;;13.47;100.00
69058;BME280;56128;37.534;-122.308;2023-09-19T06:46:02;101427.53;;;13.44;100.00
69058;BME280;56128;37.534;-122.308;2023-09-19T06:48:29;101420.91;;;13.37;100.00
69058;BME280;56128;37.534;-122.308;2023-09-19T06:50:56;101429.47;;;13.42;100.00
69058;BME280;56128;37.534;-122.308;2023-09-19T06:53:24;101418.44;;;13.34;100.00
69058;BME280;56128;37.534;-122.308;2023-09-19T06:55:51;101437.25;;;13.34;100.00
69058;BME280;56128;37.534;-122.308;2023-09-19T06:58:17;101436.84;;;13.27;100.00
69058;BME280;56128;37.534;-122.308;2023-09-19T07:00:44;101442.47;;;13.24;100.00
69058;BME280;56128;37.534;-122.308;2023-09-19T07:03:13;101441.84;;;13.21;100.00
69058;BME280;56128;37.534;-122.308;2023-09-19T07:05:40;101436.94;;;13.14;100.00
69058;BME280;56128;37.534;-122.308;2023-09-19T07:08:11;101439.97;;;13.10;100.00
69058;BME280;56128;37.534;-122.308;2023-09-19T07:10:39;101430.56;;;13.04;100.00
69058;BME280;56128;37.534;-122.308;2023-09-19T07:13:15;101439.34;;;13.06;100.00
69058;BME280;56128;37.534;-122.308;2023-09-19T07:15:43;101433.84;;;12.96;100.00
69058;BME280;56128;37.534;-122.308;2023-09-19T07:18:14;101442.63;;;12.98;100.00
69058;BME280;56128;37.534;-122.308;2023-09-19T07:20:42;101429.06;;;12.89;100.00
69058;BME280;56128;37.534;-122.308;2023-09-19T07:23:18;101423.91;;;12.86;100.00
69058;BME280;56128;37.534;-122.308;2023-09-19T07:25:45;101435.38;;;12.88;100.00
69058;BME280;56128;37.534;-122.308;2023-09-19T07:28:13;101451.25;;;12.91;100.00
69058;BME280;56128;37.534;-122.308;2023-09-19T07:30:42;101446.75;;;12.91;100.00
69058;BME280;56128;37.534;-122.308;2023-09-19T07:33:08;101437.56;;;12.82;100.00
69058;BME280;56128;37.534;-122.308;2023-09-19T07:35:40;101437.56;;;12.82;100.00
69058;BME280;56128;37.534;-122.308;2023-09-19T07:38:07;101433.78;;;12.85;100.00
69058;BME280;56128;37.534;-122.308;2023-09-19T07:40:33;101424.03;;;12.84;100.00
69058;BME280;56128;37.534;-122.308;2023-09-19T07:43:04;101436.09;;;12.90;100.00
69058;BME280;56128;37.534;-122.308;2023-09-19T07:45:31;101431.44;;;12.80;100.00
69058;BME280;56128;37.534;-122.308;2023-09-19T07:47:58;101419.69;;;12.70;100.00
69058;BME280;56128;37.534;-122.308;2023-09-19T07:50:45;101440.34;;;12.81;100.00
69058;BME280;56128;37.534;-122.308;2023-09-19T07:53:12;101427.50;;;12.73;100.00
69058;BME280;56128;37.534;-122.308;2023-09-19T07:55:43;101440.84;;;12.86;100.00
69058;BME280;56128;37.534;-122.308;2023-09-19T07:58:15;101434.97;;;12.81;100.00
69058;BME280;56128;37.534;-122.308;2023-09-19T08:00:41;101423.84;;;12.74;100.00
69058;BME280;56128;37.534;-122.308;2023-09-19T08:03:08;101448.31;;;12.82;100.00
69058;BME280;56128;37.534;-122.308;2023-09-19T08:05:36;101428.84;;;12.68;100.00
69058;BME280;56128;37.534;-122.308;2023-09-19T08:08:05;101445.22;;;12.76;100.00
69058;BME280;56128;37.534;-122.308;2023-09-19T08:10:33;101443.41;;;12.76;100.00
69058;BME280;56128;37.534;-122.308;2023-09-19T08:13:01;101436.53;;;12.72;100.00
69058;BME280;56128;37.534;-122.308;2023-09-19T08:15:43;101436.75;;;12.69;100.00
69058;BME280;56128;37.534;-122.308;2023-09-19T08:18:13;101440.88;;;12.62;100.00
69058;BME280;56128;37.534;-122.308;2023-09-19T08:20:40;101437.22;;;12.63;100.00
69058;BME280;56128;37.534;-122.308;2023-09-19T08:23:08;101455.44;;;12.71;100.00
69058;BME280;56128;37.534;-122.308;2023-09-19T08:25:34;101440.66;;;12.65;100.00
69058;BME280;56128;37.534;-122.308;2023-09-19T08:28:01;101437.22;;;12.63;100.00
69058;BME280;56128;37.534;-122.308;2023-09-19T08:30:29;101434.41;;;12.64;100.00
69058;BME280;56128;37.534;-122.308;2023-09-19T08:33:00;101443.22;;;12.66;100.00
69058;BME280;56128;37.534;-122.308;2023-09-19T08:35:27;101435.75;;;12.59;100.00
69058;BME280;56128;37.534;-122.308;2023-09-19T08:38:02;101429.09;;;12.52;100.00
69058;BME280;56128;37.534;-122.308;2023-09-19T08:40:36;101444.75;;;12.58;100.00
69058;BME280;56128;37.534;-122.308;2023-09-19T08:43:07;101420.53;;;12.46;100.00
69058;BME280;56128;37.534;-122.308;2023-09-19T08:45:34;101433.91;;;12.59;100.00
69058;BME280;56128;37.534;-122.308;2023-09-19T08:48:23;101441.75;;;12.62;100.00
69058;BME280;56128;37.534;-122.308;2023-09-19T08:51:02;101426.88;;;12.45;100.00
69058;BME280;56128;37.534;-122.308;2023-09-19T08:53:54;101439.84;;;12.52;100.00
69058;BME280;56128;37.534;-122.308;2023-09-19T08:56:25;101429.56;;;12.45;100.00
69058;BME280;56128;37.534;-122.308;2023-09-19T08:59:20;101433.44;;;12.41;100.00
69058;BME280;56128;37.534;-122.308;2023-09-19T09:01:50;101415.81;;;12.37;100.00
69058;BME280;56128;37.534;-122.308;2023-09-19T09:04:19;101424.63;;;12.39;100.00
69058;BME280;56128;37.534;-122.308;2023-09-19T09:06:46;101424.44;;;12.42;100.00
69058;BME280;56128;37.534;-122.308;2023-09-19T09:09:17;101404.81;;;12.29;100.00
69058;BME280;56128;37.534;-122.308;2023-09-19T09:11:48;101400.19;;;12.31;100.00
69058;BME280;56128;37.534;-122.308;2023-09-19T09:14:20;101415.16;;;12.46;100.00
69058;BME280;56128;37.534;-122.308;2023-09-19T09:16:47;101406.38;;;12.44;100.00
69058;BME280;56128;37.534;-122.308;2023-09-19T09:19:17;101409.81;;;12.46;100.00
69058;BME280;56128;37.534;-122.308;2023-09-19T09:21:50;101410.78;;;12.45;100.00
69058;BME280;56128;37.534;-122.308;2023-09-19T09:24:30;101406.38;;;12.44;100.00
69058;BME280;56128;37.534;-122.308;2023-09-19T09:26:59;101397.81;;;12.39;100.00
69058;BME280;56128;37.534;-122.308;2023-09-19T09:29:44;101420.31;;;12.49;100.00
69058;BME280;56128;37.534;-122.308;2023-09-19T09:32:26;101414.53;;;12.43;100.00
69058;BME280;56128;37.534;-122.308;2023-09-19T09:34:59;101401.91;;;12.32;100.00
69058;BME280;56128;37.534;-122.308;2023-09-19T09:37:26;101400.41;;;12.28;100.00
69058;BME280;56128;37.534;-122.308;2023-09-19T09:40:00;101398.81;;;12.25;100.00
69058;BME280;56128;37.534;-122.308;2023-09-19T09:42:42;101393.91;;;12.19;100.00
69058;BME280;56128;37.534;-122.308;2023-09-19T09:45:14;101404.75;;;12.17;100.00
69058;BME280;56128;37.534;-122.308;2023-09-19T09:47:45;101404.97;;;12.14;100.00
69058;BME280;56128;37.534;-122.308;2023-09-19T09:50:30;101422.22;;;12.23;100.00
69058;BME280;56128;37.534;-122.308;2023-09-19T09:53:27;101413.75;;;12.16;100.00
69058;BME280;56128;37.534;-122.308;2023-09-19T09:58:26;101408.19;;;12.07;100.00
69058;BME280;56128;37.534;-122.308;2023-09-19T10:00:56;101405.75;;;12.04;100.00
69058;BME280;56128;37.534;-122.308;2023-09-19T10:03:36;101395.88;;;12.04;100.00
69058;BME280;56128;37.534;-122.308;2023-09-19T10:06:07;101398.56;;;12.04;100.00
69058;BME280;56128;37.534;-122.308;2023-09-19T10:08:59;101393.19;;;12.04;100.00
69058;BME280;56128;37.534;-122.308;2023-09-19T10:12:06;101391.91;;;11.97;100.00
69058;BME280;56128;37.534;-122.308;2023-09-19T10:14:38;101395.59;;;11.96;100.00
69058;BME280;56128;37.534;-122.308;2023-09-19T10:17:05;101394.03;;;11.92;100.00
69058;BME280;56128;37.534;-122.308;2023-09-19T10:19:56;101420.34;;;11.99;100.00
69058;BME280;56128;37.534;-122.308;2023-09-19T10:22:34;101397.28;;;11.84;100.00
69058;BME280;56128;37.534;-122.308;2023-09-19T10:25:02;101393.75;;;11.83;100.00
69058;BME280;56128;37.534;-122.308;2023-09-19T10:27:33;101392.34;;;11.78;100.00
69058;BME280;56128;37.534;-122.308;2023-09-19T10:30:06;101395.34;;;11.73;100.00
69058;BME280;56128;37.534;-122.308;2023-09-19T10:32:35;101395.25;;;11.75;100.00
69058;BME280;56128;37.534;-122.308;2023-09-19T10:35:07;101404.91;;;11.77;100.00
69058;BME280;56128;37.534;-122.308;2023-09-19T10:37:34;101397.94;;;11.75;100.00
69058;BME280;56128;37.534;-122.308;2023-09-19T10:40:07;101380.78;;;11.64;100.00
69058;BME280;56128;37.534;-122.308;2023-09-19T10:42:38;101378.97;;;11.65;100.00
69058;BME280;56128;37.534;-122.308;2023-09-19T10:45:08;101395.59;;;11.70;100.00
69058;BME280;56128;37.534;-122.308;2023-09-19T10:47:39;101378.44;;;11.60;100.00
69058;BME280;56128;37.534;-122.308;2023-09-19T10:50:06;101395.91;;;11.65;100.00
69058;BME280;56128;37.534;-122.308;2023-09-19T10:52:40;101367.19;;;11.55;100.00
69058;BME280;56128;37.534;-122.308;2023-09-19T10:55:09;101389.03;;;11.61;100.00
69058;BME280;56128;37.534;-122.308;2023-09-19T10:57:37;101374.69;;;11.62;100.00
69058;BME280;56128;37.534;-122.308;2023-09-19T11:00:05;101379.09;;;11.63;100.00
69058;BME280;56128;37.534;-122.308;2023-09-19T11:03:22;101379.63;;;11.68;100.00
69058;BME280;56128;37.534;-122.308;2023-09-19T11:06:02;101378.00;;;11.66;100.00
69058;BME280;56128;37.534;-122.308;2023-09-19T11:08:50;101354.63;;;11.55;100.00
69058;BME280;56128;37.534;-122.308;2023-09-19T11:30:40;101380.78;;;11.51;100.00
69058;BME280;56128;37.534;-122.308;2023-09-19T11:33:19;101364.50;;;11.42;100.00
69058;BME280;56128;37.534;-122.308;2023-09-19T11:36:09;101367.28;;;11.53;100.00
69058;BME280;56128;37.534;-122.308;2023-09-19T11:46:33;101353.16;;;11.51;100.00
69058;BME280;56128;37.534;-122.308;2023-09-19T11:49:07;101354.22;;;11.48;100.00
69058;BME280;56128;37.534;-122.308;2023-09-19T11:51:42;101349.28;;;11.42;100.00
69058;BME280;56128;37.534;-122.308;2023-09-19T11:54:13;101352.63;;;11.46;100.00
69058;BME280;56128;37.534;-122.308;2023-09-19T11:56:51;101355.09;;;11.36;100.00
69058;BME280;56128;37.534;-122.308;2023-09-19T11:59:31;101337.72;;;11.29;100.00
69058;BME280;56128;37.534;-122.308;2023-09-19T12:02:01;101358.28;;;11.41;100.00
69058;BME280;56128;37.534;-122.308;2023-09-19T12:04:48;101343.72;;;11.32;100.00
69058;BME280;56128;37.534;-122.308;2023-09-19T12:07:19;101346.81;;;11.26;100.00
69058;BME280;56128;37.534;-122.308;2023-09-19T12:10:13;101362.59;;;11.31;100.00
69058;BME280;56128;37.534;-122.308;2023-09-19T12:12:47;101341.59;;;11.25;100.00
69058;BME280;56128;37.534;-122.308;2023-09-19T12:15:16;101342.66;;;11.22;100.00
69058;BME280;56128;37.534;-122.308;2023-09-19T12:17:48;101348.00;;;11.35;100.00
69058;BME280;56128;37.534;-122.308;2023-09-19T12:20:14;101330.41;;;11.18;100.00
69058;BME280;56128;37.534;-122.308;2023-09-19T12:22:46;101367.06;;;11.30;100.00
69058;BME280;56128;37.534;-122.308;2023-09-19T12:25:13;101358.63;;;11.24;100.00
69058;BME280;56128;37.534;-122.308;2023-09-19T12:27:49;101373.06;;;11.34;100.00
69058;BME280;56128;37.534;-122.308;2023-09-19T12:30:19;101362.13;;;11.24;100.00
69058;BME280;56128;37.534;-122.308;2023-09-19T12:32:48;101357.66;;;11.25;100.00
69058;BME280;56128;37.534;-122.308;2023-09-19T12:35:32;101355.72;;;11.27;100.00
69058;BME280;56128;37.534;-122.308;2023-09-19T12:38:02;101360.22;;;11.39;100.00
69058;BME280;56128;37.534;-122.308;2023-09-19T12:40:30;101363.00;;;11.50;100.00
69058;BME280;56128;37.534;-122.308;2023-09-19T12:42:59;101375.00;;;11.58;100.00
69058;BME280;56128;37.534;-122.308;2023-09-19T12:45:28;101373.09;;;11.60;100.00
69058;BME280;56128;37.534;-122.308;2023-09-19T12:48:22;101378.94;;;11.78;100.00
69058;BME280;56128;37.534;-122.308;2023-09-19T12:51:13;101358.25;;;11.80;100.00
69058;BME280;56128;37.534;-122.308;2023-09-19T12:53:45;101370.56;;;11.82;100.00
69058;BME280;56128;37.534;-122.308;2023-09-19T12:56:16;101370.25;;;11.87;100.00
69058;BME280;56128;37.534;-122.308;2023-09-19T12:58:54;101366.56;;;11.88;100.00
69058;BME280;56128;37.534;-122.308;2023-09-19T13:01:24;101374.31;;;11.93;100.00
69058;BME280;56128;37.534;-122.308;2023-09-19T13:04:15;101375.38;;;11.90;100.00
69058;BME280;56128;37.534;-122.308;2023-09-19T13:06:50;101373.03;;;11.85;100.00
69058;BME280;56128;37.534;-122.308;2023-09-19T13:09:19;101357.72;;;11.75;100.00
69058;BME280;56128;37.534;-122.308;2023-09-19T13:11:46;101372.38;;;11.82;100.00
69058;BME280;56128;37.534;-122.308;2023-09-19T13:16:56;101376.66;;;11.84;100.00
69058;BME280;56128;37.534;-122.308;2023-09-19T13:22:01;101355.22;;;11.84;100.00
69058;BME280;56128;37.534;-122.308;2023-09-19T13:24:28;101356.72;;;11.89;100.00
69058;BME280;56128;37.534;-122.308;2023-09-19T13:26:56;101370.38;;;11.98;100.00
69058;BME280;56128;37.534;-122.308;2023-09-19T13:29:23;101364.13;;;11.98;100.00
69058;BME280;56128;37.534;-122.308;2023-09-19T13:31:50;101365.72;;;12.00;100.00
69058;BME280;56128;37.534;-122.308;2023-09-19T13:34:19;101360.13;;;11.91;100.00
69058;BME280;56128;37.534;-122.308;2023-09-19T13:36:46;101367.09;;;11.93;100.00
69058;BME280;56128;37.534;-122.308;2023-09-19T13:39:18;101368.41;;;11.88;100.00
69058;BME280;56128;37.534;-122.308;2023-09-19T13:41:46;101366.19;;;11.81;100.00
69058;BME280;56128;37.534;-122.308;2023-09-19T13:44:13;101369.81;;;11.80;100.00
69058;BME280;56128;37.534;-122.308;2023-09-19T13:46:40;101367.91;;;11.82;100.00
69058;BME280;56128;37.534;-122.308;2023-09-19T13:49:09;101370.47;;;11.84;100.00
69058;BME280;56128;37.534;-122.308;2023-09-19T13:51:35;101366.69;;;11.86;100.00
69058;BME280;56128;37.534;-122.308;2023-09-19T13:54:17;101368.41;;;11.88;100.00
69058;BME280;56128;37.534;-122.308;2023-09-19T13:56:43;101387.81;;;12.04;100.00
69058;BME280;56128;37.534;-122.308;2023-09-19T13:59:10;101369.78;;;11.93;100.00
69058;BME280;56128;37.534;-122.308;2023-09-19T14:01:36;101369.19;;;11.90;100.00
69058;BME280;56128;37.534;-122.308;2023-09-19T14:04:02;101380.28;;;12.09;100.00
69058;BME280;56128;37.534;-122.308;2023-09-19T14:06:29;101379.28;;;12.23;100.00
69058;BME280;56128;37.534;-122.308;2023-09-19T14:08:55;101394.34;;;12.37;100.00
69058;BME280;56128;37.534;-122.308;2023-09-19T14:11:21;101380.66;;;12.29;100.00
69058;BME280;56128;37.534;-122.308;2023-09-19T14:13:48;101400.28;;;12.42;100.00
69058;BME280;56128;37.534;-122.308;2023-09-19T14:16:16;101385.78;;;12.45;100.00
69058;BME280;56128;37.534;-122.308;2023-09-19T14:18:45;101392.16;;;12.55;100.00
69058;BME280;56128;37.534;-122.308;2023-09-19T14:21:12;101382.31;;;12.67;100.00
69058;BME280;56128;37.534;-122.308;2023-09-19T14:23:38;101375.13;;;12.68;100.00
69058;BME280;56128;37.534;-122.308;2023-09-19T14:26:05;101387.22;;;12.73;100.00
69058;BME280;56128;37.534;-122.308;2023-09-19T14:28:32;101397.03;;;12.86;100.00
69058;BME280;56128;37.534;-122.308;2023-09-19T14:31:06;101385.00;;;12.91;100.00
69058;BME280;56128;37.534;-122.308;2023-09-19T14:33:35;101397.06;;;12.97;100.00
69058;BME280;56128;37.534;-122.308;2023-09-19T14:36:06;101392.94;;;13.04;100.00
69058;BME280;56128;37.534;-122.308;2023-09-19T14:38:37;101371.22;;;13.07;100.00
69058;BME280;56128;37.534;-122.308;2023-09-19T14:41:05;101369.03;;;13.12;100.00
69058;BME280;56128;37.534;-122.308;2023-09-19T14:50:22;101374.59;;;13.45;100.00
69058;BME280;56128;37.534;-122.308;2023-09-19T14:53:27;101372.03;;;13.55;100.00
69058;BME280;56128;37.534;-122.308;2023-09-19T14:55:53;101377.81;;;13.73;100.00
69058;BME280;56128;37.534;-122.308;2023-09-19T14:58:26;101367.91;;;13.73;100.00
69058;BME280;56128;37.534;-122.308;2023-09-19T20:20:30;101199.56;;;22.74;96.90
69058;BME280;56128;37.534;-122.308;2023-09-19T20:22:58;101211.19;;;22.53;99.27
69058;BME280;56128;37.534;-122.308;2023-09-19T20:25:31;101199.13;;;22.47;99.36
69058;BME280;56128;37.534;-122.308;2023-09-19T20:28:00;101203.94;;;22.22;98.96
69058;BME280;56128;37.534;-122.308;2023-09-19T20:30:26;101202.66;;;22.10;99.12
69058;BME280;56128;37.534;-122.308;2023-09-19T20:33:12;101189.75;;;22.27;100.00
69058;BME280;56128;37.534;-122.308;2023-09-19T20:35:39;101203.84;;;22.53;99.07
69058;BME280;56128;37.534;-122.308;2023-09-19T20:38:07;101190.88;;;22.32;96.89
69058;BME280;56128;37.534;-122.308;2023-09-19T20:40:34;101197.66;;;22.60;99.25
69058;BME280;56128;37.534;-122.308;2023-09-19T20:43:07;101187.63;;;22.75;97.53
69058;BME280;56128;37.534;-122.308;2023-09-19T20:45:34;101193.63;;;22.70;96.02
69058;BME280;56128;37.534;-122.308;2023-09-19T20:48:06;101193.53;;;22.64;97.16
69058;BME280;56128;37.534;-122.308;2023-09-19T20:50:33;101178.47;;;22.68;97.32
69058;BME280;56128;37.534;-122.308;2023-09-19T20:53:03;101183.25;;;22.66;96.17
69058;BME280;56128;37.534;-122.308;2023-09-19T20:55:29;101196.81;;;22.59;96.83
69058;BME280;56128;37.534;-122.308;2023-09-19T20:57:59;101184.41;;;22.57;97.82
69058;BME280;56128;37.534;-122.308;2023-09-19T21:00:28;101168.78;;;22.50;97.83
69058;BME280;56128;37.534;-122.308;2023-09-19T21:02:57;101189.47;;;22.60;98.63
69058;BME280;56128;37.534;-122.308;2023-09-19T21:05:23;101166.59;;;22.46;98.32
69058;BME280;56128;37.534;-122.308;2023-09-19T21:07:53;101172.19;;;22.52;98.70
69058;BME280;56128;37.534;-122.308;2023-09-19T21:10:34;101174.59;;;22.47;99.36
69058;BME280;56128;37.534;-122.308;2023-09-19T21:13:04;101171.16;;;22.30;99.97
69058;BME280;56128;37.534;-122.308;2023-09-19T21:15:41;101190.50;;;22.20;99.70
69058;BME280;56128;37.534;-122.308;2023-09-19T21:18:07;101185.66;;;22.08;100.00
69058;BME280;56128;37.534;-122.308;2023-09-19T21:20:33;101157.09;;;21.80;100.00
69058;BME280;56128;37.534;-122.308;2023-09-19T21:23:08;101154.66;;;21.85;100.00
69058;BME280;56128;37.534;-122.308;2023-09-19T21:25:42;101152.13;;;21.84;100.00
69058;BME280;56128;37.534;-122.308;2023-09-19T21:28:19;101159.16;;;21.78;100.00
69058;BME280;56128;37.534;-122.308;2023-09-19T21:30:56;101155.81;;;21.68;100.00
69058;BME280;56128;37.534;-122.308;2023-09-19T21:33:22;101155.72;;;21.53;100.00
69058;BME280;56128;37.534;-122.308;2023-09-19T21:35:48;101153.66;;;21.55;100.00
69058;BME280;56128;37.534;-122.308;2023-09-19T21:41:55;101158.41;;;21.30;100.00
69058;BME280;56128;37.534;-122.308;2023-09-19T21:44:21;101144.22;;;21.11;100.00
69058;BME280;56128;37.534;-122.308;2023-09-19T21:46:48;101132.22;;;20.89;100.00
69058;BME280;56128;37.534;-122.308;2023-09-19T21:49:31;101147.03;;;20.95;100.00
69058;BME280;56128;37.534;-122.308;2023-09-19T21:52:06;101130.75;;;20.78;100.00
69058;BME280;56128;37.534;-122.308;2023-09-19T21:54:38;101131.09;;;20.75;100.00
69058;BME280;56128;37.534;-122.308;2023-09-19T21:57:07;101126.03;;;20.72;100.00
69058;BME280;56128;37.534;-122.308;2023-09-19T22:00:06;101115.31;;;20.62;100.00
69058;BME280;56128;37.534;-122.308;2023-09-19T22:02:51;101121.41;;;20.72;100.00
69058;BME280;56128;37.534;-122.308;2023-09-19T22:05:30;101095.78;;;20.58;100.00
69058;BME280;56128;37.534;-122.308;2023-09-19T22:08:11;101128.03;;;20.70;100.00
69058;BME280;56128;37.534;-122.308;2023-09-19T22:10:49;101115.50;;;20.52;100.00
69058;BME280;56128;37.534;-122.308;2023-09-19T22:13:25;101091.91;;;20.44;100.00
69058;BME280;56128;37.534;-122.308;2023-09-19T22:15:58;101097.50;;;20.51;100.00
69058;BME280;56128;37.534;-122.308;2023-09-19T22:18:29;101117.53;;;20.50;100.00
69058;BME280;56128;37.534;-122.308;2023-09-19T22:23:57;101088.06;;;20.31;100.00
